Meteo Giornale » Osservazioni meteo Italia » Napoli-Capodichino

ore: 00:50 - Osservazioni Meteo Napoli-Capodichino
Lat. 40° 51' N Lon. 14° 18' E Alt. 88 metri s.l.m.

sereno Europe/Rome

24 °C

Sereno

Temp. 24 Ore

23 °C

33 °C

Nord

1.8 Km/h

Dew point 16 °C

Umidità 60 %

Visibilità  10 Km

Il sole sorge alle ore 06:16

Il sole tramonta alle ore 19:56

Data e Ora Cielo e Fenomeni T °C DP °C Um. % Pres. hPa Vis. km Vento km/h
Oggi h: 00:50 sereno Sereno 24 16 60 1015 10 N 1.8
Oggi h: 00:20 sereno Sereno 24 17 64 1015 10 N 1.8
Ieri h: 23:50 sereno Sereno 25 15 53 1015 10 N 0
Ieri h: 23:20 sereno Sereno 25 18 65 1015 10 N 3.7
Ieri h: 22:50 sereno Sereno 25 18 65 1015 10 N 0
Ieri h: 22:20 sereno Sereno 26 20 69 1015 10 N 0
Ieri h: 21:50 sereno Sereno 26 20 69 1016 10 N 1.8
Ieri h: 21:20 sereno Sereno 27 18 57 1016 10 N 5.5
Ieri h: 20:50 sereno Sereno 27 16 50 1016 10 N 3.7
Ieri h: 20:20 sereno Sereno 28 16 48 1015 10 N 3.7
Ieri h: 19:50 sereno Sereno 28 16 48 1015 10 N 5.5
Ieri h: 19:20 sereno Sereno 28 19 58 1015 10 E/SE 7.4
Ieri h: 18:50 sereno Sereno 30 15 40 1015 10 N 3.7
Ieri h: 18:20 sereno Sereno 30 20 55 1015 10 N 7.4
Ieri h: 17:50 sereno Sereno 29 21 62 1015 10 N 5.5
Ieri h: 17:20 sereno Sereno 31 21 55 1015 10 O/NO 9.3
Ieri h: 16:50 sereno Sereno 32 13 31 1015 10 O/NO 14.8
Ieri h: 16:20 sereno Sereno 33 16 36 1015 10 O 11.1
Ieri h: 15:50 sereno Sereno 31 20 52 1015 10 S 14.8
Ieri h: 15:20 sereno Sereno 30 19 51 1016 10 S/SO 22.2
Ieri h: 14:50 sereno Sereno 31 19 48 1016 10 S/SO 20.3
Ieri h: 14:20 sereno Sereno 31 15 37 1016 10 S 20.3
Ieri h: 13:50 sereno Sereno 31 15 37 1016 10 S 20.3
Ieri h: 13:20 sereno Sereno 30 18 48 1016 10 S 16.7
Ieri h: 12:50 sereno Sereno 30 19 51 1016 10 S 14.8
Ieri h: 12:20 sereno Sereno 29 20 58 1017 10 S/SO 16.7
Ieri h: 11:50 sereno Sereno 30 20 55 1017 10 S 11.1
Ieri h: 11:20 sereno Sereno 29 20 58 1017 10 S 9.3
Ieri h: 10:50 sereno Sereno 29 19 54 1017 10 S/SO 11.1
Ieri h: 10:20 sereno Sereno 29 18 51 1017 10 S/SO 9.3
Ieri h: 09:50 sereno Sereno 30 14 37 1017 10 N 3.7
Ieri h: 09:20 sereno Sereno 29 14 39 1017 10 N 0
Ieri h: 08:50 sereno Sereno 27 16 50 1017 10 N 3.7
Ieri h: 08:20 sereno Sereno 26 16 54 1017 10 N 5.5
Ieri h: 07:50 sereno Sereno 26 15 50 1017 10 N 0
Ieri h: 07:20 sereno Sereno 24 15 57 1017 10 N 3.7
Ieri h: 06:50 sereno Sereno 23 15 60 1016 10 N 3.7
Ieri h: 06:20 sereno Sereno 23 15 60 1016 10 N 1.8
Ieri h: 05:50 sereno Sereno 23 15 60 1016 10 N 3.7
Ieri h: 05:20 sereno Sereno 23 15 60 1016 10 N 5.5
Ieri h: 04:50 sereno Sereno 23 17 68 1016 10 N 0
Ieri h: 04:20 sereno Sereno 23 16 64 1016 10 N 0
Ieri h: 03:50 sereno Sereno 23 17 68 1016 10 N 1.8
Ieri h: 03:20 sereno Sereno 24 17 64 1016 10 N 1.8
Ieri h: 02:20 sereno Sereno 25 15 53 1016 10 N 0
Ieri h: 01:50 sereno Sereno 25 12 44 1016 10 N 0